createdAt,value
2023-06-29T00:01:08.406Z,25.67
2023-06-29T00:03:38.783Z,27.27
2023-06-29T00:06:08.244Z,26.47
2023-06-29T00:08:37.999Z,28.70
2023-06-29T00:11:06.504Z,25.50
2023-06-29T00:13:34.651Z,27.00
2023-06-29T00:16:03.271Z,22.53
2023-06-29T00:18:31.651Z,29.20
2023-06-29T00:21:02.152Z,26.43
2023-06-29T00:23:32.803Z,26.47
2023-06-29T00:26:01.687Z,26.57
2023-06-29T00:28:29.984Z,29.03
2023-06-29T00:30:58.322Z,25.90
2023-06-29T00:33:30.579Z,28.43
2023-06-29T00:36:00.162Z,25.50
2023-06-29T00:38:28.314Z,23.87
2023-06-29T00:40:57.819Z,28.60
2023-06-29T00:43:26.877Z,25.93
2023-06-29T00:45:55.155Z,26.77
2023-06-29T00:48:23.368Z,31.70
2023-06-29T00:50:51.746Z,28.90
2023-06-29T00:53:21.338Z,31.20
2023-06-29T00:55:50.822Z,24.37
2023-06-29T00:58:22.088Z,25.60
2023-06-29T01:00:50.400Z,27.20
2023-06-29T01:03:19.042Z,29.77
2023-06-29T01:05:49.172Z,27.03
2023-06-29T01:08:24.807Z,30.60
2023-06-29T01:10:53.642Z,26.50
2023-06-29T01:13:24.095Z,28.13
2023-06-29T01:15:54.235Z,24.60
2023-06-29T01:18:25.069Z,27.70
2023-06-29T01:20:55.243Z,26.40
2023-06-29T01:23:27.897Z,27.10
2023-06-29T01:25:58.854Z,29.00
2023-06-29T01:28:30.198Z,32.67
2023-06-29T01:30:58.437Z,27.00
2023-06-29T01:33:28.222Z,32.17
2023-06-29T01:36:06.160Z,31.07
2023-06-29T01:38:45.866Z,29.77
2023-06-29T01:41:18.172Z,32.10
2023-06-29T01:43:47.361Z,31.20
2023-06-29T01:46:17.222Z,29.00
2023-06-29T01:48:47.203Z,34.40
2023-06-29T01:51:15.971Z,30.40
2023-06-29T01:53:44.213Z,31.37
2023-06-29T01:56:12.683Z,28.00
2023-06-29T01:58:42.356Z,31.10
2023-06-29T02:01:10.781Z,30.73
2023-06-29T02:03:39.242Z,30.63
2023-06-29T02:06:09.273Z,26.40
2023-06-29T02:08:39.987Z,32.70
2023-06-29T02:11:09.912Z,32.17
2023-06-29T02:13:38.189Z,30.20
2023-06-29T02:16:07.895Z,31.07
2023-06-29T02:18:36.090Z,30.60
2023-06-29T02:21:04.392Z,29.00
2023-06-29T02:23:32.552Z,30.73
2023-06-29T02:26:00.755Z,32.70
2023-06-29T02:28:29.065Z,31.83
2023-06-29T02:30:57.443Z,33.97
2023-06-29T02:33:27.394Z,38.93
2023-06-29T02:35:55.817Z,29.40
2023-06-29T02:38:24.154Z,30.97
2023-06-29T02:40:52.431Z,31.63
2023-06-29T02:43:20.816Z,34.10
2023-06-29T02:45:49.070Z,35.93
2023-06-29T02:48:17.690Z,33.80
2023-06-29T02:50:47.799Z,31.90
2023-06-29T02:53:17.681Z,32.87
2023-06-29T02:55:46.241Z,34.83
2023-06-29T02:58:14.733Z,33.50
2023-06-29T03:00:43.152Z,34.60
2023-06-29T03:03:11.875Z,35.90
2023-06-29T03:05:40.495Z,32.53
2023-06-29T03:08:10.804Z,40.73
2023-06-29T03:10:39.137Z,37.10
2023-06-29T03:13:07.485Z,32.90
2023-06-29T03:15:36.013Z,37.07
2023-06-29T03:18:05.712Z,38.90
2023-06-29T03:20:33.955Z,33.27
2023-06-29T03:23:02.155Z,33.27
2023-06-29T03:25:31.814Z,37.27
2023-06-29T03:28:00.061Z,36.10
2023-06-29T03:30:28.554Z,37.43
2023-06-29T03:32:59.585Z,38.13
2023-06-29T03:35:27.913Z,33.40
2023-06-29T03:37:56.391Z,37.53
2023-06-29T03:40:24.682Z,37.70
2023-06-29T03:42:54.286Z,35.63
2023-06-29T03:45:22.811Z,35.20
2023-06-29T03:47:51.085Z,41.77
2023-06-29T03:50:19.848Z,37.63
2023-06-29T03:52:48.109Z,35.47
2023-06-29T03:55:18.820Z,36.73
2023-06-29T03:57:46.990Z,39.30
2023-06-29T04:00:17.686Z,38.30
2023-06-29T04:02:45.933Z,37.33
2023-06-29T04:05:14.622Z,38.77
2023-06-29T04:07:42.889Z,40.07
2023-06-29T04:10:12.034Z,37.87
2023-06-29T04:12:40.557Z,38.27
2023-06-29T04:15:10.800Z,44.60
2023-06-29T04:17:40.557Z,38.00
2023-06-29T04:20:10.708Z,42.80
2023-06-29T04:22:39.245Z,41.00
2023-06-29T04:25:08.924Z,43.30
2023-06-29T04:27:37.398Z,39.43
2023-06-29T04:30:07.190Z,42.37
2023-06-29T04:32:36.263Z,43.20
2023-06-29T04:35:07.412Z,42.13
2023-06-29T04:37:41.970Z,43.93
2023-06-29T04:40:11.799Z,40.63
2023-06-29T04:42:44.979Z,41.20
2023-06-29T04:45:20.333Z,45.27
2023-06-29T04:47:51.540Z,45.70
2023-06-29T04:50:26.556Z,42.00
2023-06-29T04:52:55.932Z,43.03
2023-06-29T04:55:25.099Z,50.60
2023-06-29T04:57:53.445Z,43.67
2023-06-29T05:00:21.947Z,43.10
2023-06-29T05:02:50.263Z,41.50
2023-06-29T05:05:20.075Z,43.13
2023-06-29T05:07:48.482Z,37.17
2023-06-29T05:10:16.731Z,43.40
2023-06-29T05:12:44.971Z,40.40
2023-06-29T05:15:13.694Z,40.97
2023-06-29T05:17:42.227Z,38.03
2023-06-29T05:20:12.514Z,43.70
2023-06-29T05:22:42.331Z,38.33
2023-06-29T05:25:11.344Z,40.17
2023-06-29T05:27:41.188Z,37.80
2023-06-29T05:30:11.410Z,37.97
2023-06-29T05:32:40.229Z,37.57
2023-06-29T05:35:09.288Z,42.37
2023-06-29T05:37:37.605Z,35.13
2023-06-29T05:40:09.968Z,44.57
2023-06-29T05:42:38.659Z,34.80
2023-06-29T05:45:08.381Z,34.27
2023-06-29T05:47:36.706Z,42.97
2023-06-29T05:50:05.945Z,37.43
2023-06-29T05:52:35.197Z,42.03
2023-06-29T05:55:04.856Z,35.90
2023-06-29T05:57:34.563Z,36.53
2023-06-29T06:00:07.044Z,42.97
2023-06-29T06:02:35.413Z,41.50
2023-06-29T06:05:07.004Z,39.63
2023-06-29T06:07:36.236Z,37.77
2023-06-29T06:10:06.048Z,39.23
2023-06-29T06:12:35.715Z,39.10
2023-06-29T06:15:04.149Z,36.80
2023-06-29T06:17:32.446Z,39.73
2023-06-29T06:20:00.760Z,37.80
2023-06-29T06:22:28.986Z,36.17
2023-06-29T06:24:57.392Z,35.90
2023-06-29T06:27:26.409Z,36.67
2023-06-29T06:29:56.145Z,40.40
2023-06-29T06:32:25.701Z,35.37
2023-06-29T06:34:54.298Z,36.67
2023-06-29T06:37:23.005Z,37.70
2023-06-29T06:39:51.204Z,39.93
2023-06-29T06:42:19.670Z,34.00
2023-06-29T06:44:57.137Z,35.67
2023-06-29T06:47:25.596Z,38.40
2023-06-29T06:49:53.813Z,36.13
2023-06-29T06:52:22.063Z,34.77
2023-06-29T06:54:50.408Z,31.47
2023-06-29T06:57:18.705Z,38.77
2023-06-29T06:59:47.214Z,42.77
2023-06-29T07:02:17.423Z,38.03
2023-06-29T07:04:45.871Z,33.67
2023-06-29T07:07:14.136Z,31.47
2023-06-29T07:09:42.401Z,31.23
2023-06-29T07:12:11.943Z,34.27
2023-06-29T07:14:40.186Z,34.90
2023-06-29T07:17:08.734Z,33.73
2023-06-29T07:24:40.717Z,32.93
2023-06-29T07:27:09.137Z,30.10
2023-06-29T07:29:37.463Z,34.37
2023-06-29T07:32:06.676Z,35.10
2023-06-29T07:34:35.182Z,34.57
2023-06-29T07:37:06.439Z,31.30
2023-06-29T07:39:35.472Z,41.13
2023-06-29T07:42:04.178Z,35.00
2023-06-29T07:44:32.540Z,34.67
2023-06-29T07:47:01.301Z,28.00
2023-06-29T07:49:29.637Z,32.50
2023-06-29T07:51:59.775Z,28.90
2023-06-29T07:54:29.700Z,28.97
2023-06-29T07:59:29.112Z,29.40
2023-06-29T08:01:57.528Z,31.93
2023-06-29T08:06:57.082Z,28.63
2023-06-29T08:09:25.392Z,29.27
2023-06-29T08:11:54.927Z,31.13
2023-06-29T08:14:23.100Z,31.50
2023-06-29T08:16:51.659Z,31.37
2023-06-29T08:19:20.096Z,31.67
2023-06-29T08:21:49.222Z,28.03
2023-06-29T08:24:17.987Z,26.20
2023-06-29T08:26:46.519Z,31.53
2023-06-29T08:29:16.032Z,27.10
2023-06-29T08:31:44.322Z,33.47
2023-06-29T08:34:12.961Z,29.10
2023-06-29T08:36:41.513Z,26.97
2023-06-29T08:39:10.205Z,29.90
2023-06-29T08:41:38.752Z,31.10
2023-06-29T08:44:08.472Z,29.00
2023-06-29T08:46:40.021Z,28.93
2023-06-29T08:49:09.915Z,30.03
2023-06-29T08:51:41.620Z,27.80
2023-06-29T08:54:10.653Z,31.90
2023-06-29T08:56:39.087Z,30.10
2023-06-29T08:59:07.706Z,33.10
2023-06-29T09:01:38.732Z,27.60
2023-06-29T09:04:07.490Z,31.93
2023-06-29T09:06:36.017Z,29.00
2023-06-29T09:09:04.893Z,27.07
2023-06-29T09:11:34.802Z,30.60
2023-06-29T09:14:06.510Z,30.40
2023-06-29T09:16:35.962Z,33.23
2023-06-29T09:19:06.775Z,35.07
2023-06-29T09:21:35.148Z,29.03
2023-06-29T09:24:06.200Z,29.13
2023-06-29T09:26:36.581Z,28.70
2023-06-29T09:29:05.126Z,31.10
2023-06-29T09:31:36.702Z,29.27
2023-06-29T09:34:20.781Z,31.23
2023-06-29T09:36:50.504Z,26.40
2023-06-29T09:39:19.936Z,31.70
2023-06-29T09:41:49.802Z,26.90
2023-06-29T09:44:21.346Z,30.67
2023-06-29T09:49:24.644Z,31.43
2023-06-29T09:52:05.055Z,29.37
2023-06-29T09:54:36.622Z,26.10
2023-06-29T09:57:06.034Z,27.23
2023-06-29T09:59:36.240Z,28.50
2023-06-29T10:02:05.297Z,29.00
2023-06-29T10:04:35.401Z,29.57
2023-06-29T10:07:11.606Z,26.60
2023-06-29T10:09:43.656Z,29.90
2023-06-29T10:12:15.324Z,28.70
2023-06-29T10:14:46.896Z,28.57
2023-06-29T10:17:21.916Z,25.53
2023-06-29T10:19:53.890Z,27.80
2023-06-29T10:22:23.916Z,26.53
2023-06-29T10:24:56.936Z,27.33
2023-06-29T10:27:31.775Z,27.50
2023-06-29T10:30:05.138Z,28.30
2023-06-29T10:32:35.644Z,24.47
2023-06-29T10:35:11.556Z,25.03
2023-06-29T10:37:43.060Z,31.03
2023-06-29T10:40:16.263Z,25.37
2023-06-29T10:42:53.611Z,26.57
2023-06-29T10:45:44.413Z,26.23
2023-06-29T10:48:31.305Z,29.50
2023-06-29T10:51:09.234Z,28.80
2023-06-29T10:53:37.823Z,24.83
2023-06-29T10:56:06.473Z,28.03
2023-06-29T10:58:39.194Z,29.03
2023-06-29T11:01:07.634Z,32.60
2023-06-29T11:03:37.231Z,27.63
2023-06-29T11:06:08.566Z,29.27
2023-06-29T11:08:37.205Z,32.47
2023-06-29T11:11:15.836Z,26.80
2023-06-29T11:13:46.557Z,29.43
2023-06-29T11:16:15.485Z,30.97
2023-06-29T11:18:50.964Z,29.70
2023-06-29T11:21:22.317Z,32.30
2023-06-29T11:23:54.309Z,30.87
2023-06-29T11:26:22.933Z,31.10
2023-06-29T11:28:51.505Z,32.80
2023-06-29T11:31:21.293Z,31.00
2023-06-29T11:33:50.086Z,32.50
2023-06-29T11:36:30.519Z,34.03
2023-06-29T11:39:09.876Z,33.10
2023-06-29T11:41:39.534Z,29.73
2023-06-29T11:44:11.597Z,31.87
2023-06-29T11:46:46.650Z,31.40
2023-06-29T11:49:21.872Z,29.93
2023-06-29T11:51:53.383Z,27.43
2023-06-29T11:54:22.146Z,28.03
2023-06-29T11:56:51.171Z,25.70
2023-06-29T11:59:23.006Z,28.03
2023-06-29T12:01:51.871Z,25.20
2023-06-29T12:04:20.243Z,25.93
2023-06-29T12:06:54.618Z,29.80
2023-06-29T12:09:29.913Z,26.93
2023-06-29T12:11:58.828Z,23.93
2023-06-29T12:14:30.391Z,27.13
2023-06-29T12:19:35.830Z,27.60
2023-06-29T12:22:07.255Z,25.93
2023-06-29T12:24:35.652Z,21.63
2023-06-29T12:27:04.343Z,24.33
2023-06-29T12:29:32.856Z,17.23
2023-06-29T12:32:02.078Z,19.83
2023-06-29T12:34:32.709Z,23.97
2023-06-29T12:37:01.982Z,25.37
2023-06-29T12:39:31.670Z,26.93
2023-06-29T12:42:00.203Z,26.03
2023-06-29T12:44:28.754Z,26.10
2023-06-29T12:46:57.790Z,23.33
2023-06-29T12:49:27.634Z,27.13
2023-06-29T12:51:56.389Z,24.70
2023-06-29T12:54:25.452Z,27.20
2023-06-29T12:56:55.192Z,28.20
2023-06-29T12:59:23.688Z,23.70
2023-06-29T13:01:52.027Z,24.93
2023-06-29T13:04:20.736Z,23.07
2023-06-29T13:06:49.019Z,24.90
2023-06-29T13:09:17.367Z,26.10
2023-06-29T13:11:45.880Z,23.40
2023-06-29T13:14:15.600Z,24.60
2023-06-29T13:16:44.380Z,22.37
2023-06-29T13:19:13.134Z,24.47
2023-06-29T13:21:41.981Z,20.90
2023-06-29T13:24:10.456Z,26.40
2023-06-29T13:26:39.441Z,21.40
2023-06-29T13:29:08.065Z,23.27
2023-06-29T13:31:38.581Z,21.57
2023-06-29T13:34:07.394Z,23.20
2023-06-29T13:36:36.147Z,23.10
2023-06-29T13:39:04.875Z,22.43
2023-06-29T13:41:38.310Z,21.60
2023-06-29T13:44:08.769Z,23.10
2023-06-29T13:46:38.896Z,21.97
2023-06-29T13:49:07.379Z,21.30
2023-06-29T13:51:37.412Z,23.50
2023-06-29T13:54:07.791Z,23.03
2023-06-29T13:56:39.085Z,22.27
2023-06-29T13:59:09.803Z,26.07
2023-06-29T14:01:42.236Z,26.43
2023-06-29T14:04:12.551Z,25.73
2023-06-29T14:06:43.985Z,28.77
2023-06-29T14:09:13.916Z,30.03
2023-06-29T14:11:42.857Z,25.47
2023-06-29T14:14:11.596Z,25.23
2023-06-29T14:16:41.720Z,25.50
2023-06-29T14:19:10.195Z,25.10
2023-06-29T14:21:38.712Z,27.67
2023-06-29T14:24:07.370Z,23.70
2023-06-29T14:26:35.757Z,26.07
2023-06-29T14:29:04.422Z,28.50
2023-06-29T14:31:33.063Z,25.23
2023-06-29T14:34:02.741Z,22.53
2023-06-29T14:36:31.302Z,25.67
2023-06-29T14:39:00.926Z,23.27
2023-06-29T14:41:29.190Z,24.00
2023-06-29T14:43:57.402Z,25.53
2023-06-29T14:46:25.779Z,28.03
2023-06-29T14:48:54.237Z,27.07
2023-06-29T14:51:23.866Z,29.20
2023-06-29T14:53:52.394Z,25.60
2023-06-29T14:56:20.674Z,29.90
2023-06-29T14:58:49.125Z,28.63
2023-06-29T15:01:17.592Z,25.60
2023-06-29T15:03:46.951Z,29.57
2023-06-29T15:06:16.831Z,28.43
2023-06-29T15:08:46.536Z,25.93
2023-06-29T15:11:14.861Z,24.30
2023-06-29T15:13:43.621Z,22.30
2023-06-29T15:16:11.988Z,25.03
2023-06-29T15:18:50.438Z,21.43
2023-06-29T15:21:27.025Z,17.07
2023-06-29T15:23:56.929Z,21.67
2023-06-29T15:26:25.305Z,19.20
2023-06-29T15:28:53.561Z,20.77
2023-06-29T15:31:21.939Z,18.27
2023-06-29T15:33:50.366Z,18.83
2023-06-29T15:36:18.915Z,14.50
2023-06-29T15:38:47.588Z,14.90
2023-06-29T15:41:17.499Z,13.63
2023-06-29T15:43:46.456Z,11.50
2023-06-29T15:46:15.707Z,11.93
2023-06-29T15:48:44.078Z,9.43
2023-06-29T15:51:12.449Z,9.77
2023-06-29T15:53:40.664Z,8.53
2023-06-29T15:56:08.845Z,8.10
2023-06-29T15:58:39.778Z,8.77
2023-06-29T16:01:08.660Z,7.37
2023-06-29T16:03:37.208Z,8.93
2023-06-29T16:06:05.693Z,7.57
2023-06-29T16:08:34.077Z,7.30
2023-06-29T16:11:02.401Z,6.77
2023-06-29T16:13:30.645Z,9.70
2023-06-29T16:16:00.420Z,8.63
2023-06-29T16:18:28.796Z,6.17
2023-06-29T16:20:57.056Z,6.87
2023-06-29T16:23:25.353Z,4.70
2023-06-29T16:25:53.708Z,6.43
2023-06-29T16:28:21.964Z,4.00
2023-06-29T16:30:50.403Z,4.90
2023-06-29T16:33:20.052Z,4.73
2023-06-29T16:35:48.561Z,3.70
2023-06-29T16:38:16.819Z,5.10
2023-06-29T16:40:47.029Z,4.23
2023-06-29T16:43:15.431Z,5.93
2023-06-29T16:45:46.805Z,3.50
2023-06-29T16:48:15.318Z,9.47
2023-06-29T16:50:45.046Z,6.33
2023-06-29T16:53:13.385Z,5.93
2023-06-29T16:55:41.956Z,3.53
2023-06-29T16:58:10.439Z,6.50
2023-06-29T17:00:38.603Z,3.80
2023-06-29T17:03:06.903Z,2.93
2023-06-29T17:05:35.128Z,5.17
2023-06-29T17:08:05.383Z,6.40
2023-06-29T17:10:33.588Z,2.70
2023-06-29T17:13:01.893Z,2.23
2023-06-29T17:15:30.240Z,1.77
2023-06-29T17:17:58.765Z,3.43
2023-06-29T17:20:27.413Z,5.63
2023-06-29T17:22:55.609Z,2.00
2023-06-29T17:25:25.270Z,2.53
2023-06-29T17:27:53.464Z,2.00
2023-06-29T17:30:24.750Z,2.10
2023-06-29T17:32:53.140Z,2.73
2023-06-29T17:35:21.359Z,3.67
2023-06-29T17:37:49.511Z,2.03
2023-06-29T17:40:17.866Z,3.10
2023-06-29T17:42:47.444Z,3.33
2023-06-29T17:45:16.037Z,1.97
2023-06-29T17:47:44.594Z,4.57
2023-06-29T17:50:13.198Z,1.70
2023-06-29T17:52:41.458Z,2.80
2023-06-29T17:55:10.489Z,5.40
2023-06-29T17:57:38.755Z,3.20
2023-06-29T18:00:10.324Z,2.70
2023-06-29T18:02:39.342Z,4.10
2023-06-29T18:05:08.750Z,2.80
2023-06-29T18:07:37.183Z,3.30
2023-06-29T18:10:08.226Z,4.07
2023-06-29T18:12:38.164Z,3.07
2023-06-29T18:15:09.956Z,5.87
2023-06-29T18:17:38.498Z,2.80
2023-06-29T18:20:08.664Z,2.93
2023-06-29T18:22:37.119Z,5.80
2023-06-29T18:25:06.511Z,8.00
2023-06-29T18:27:34.882Z,7.70
2023-06-29T18:30:03.500Z,5.20
2023-06-29T18:32:33.086Z,8.43
2023-06-29T18:35:01.656Z,6.67
2023-06-29T18:37:30.207Z,6.93
2023-06-29T18:39:58.520Z,6.20
2023-06-29T18:42:26.979Z,5.97
2023-06-29T18:44:55.194Z,7.47
2023-06-29T18:47:23.455Z,8.40
2023-06-29T18:49:53.230Z,7.70
2023-06-29T18:52:22.571Z,9.17
2023-06-29T18:54:52.964Z,6.47
2023-06-29T18:57:21.363Z,4.67
2023-06-29T18:59:49.942Z,4.40
2023-06-29T19:02:18.285Z,7.30
2023-06-29T19:04:46.793Z,7.27
2023-06-29T19:07:17.806Z,10.20
2023-06-29T19:09:47.559Z,9.37
2023-06-29T19:12:16.259Z,4.40
2023-06-29T19:14:44.626Z,4.20
2023-06-29T19:17:12.933Z,5.77
2023-06-29T19:19:42.969Z,4.13
2023-06-29T19:22:11.210Z,6.13
2023-06-29T19:24:41.149Z,6.80
2023-06-29T19:27:09.717Z,6.20
2023-06-29T19:29:37.981Z,5.67
2023-06-29T19:32:08.055Z,3.33
2023-06-29T19:34:36.451Z,4.77
2023-06-29T19:37:05.604Z,4.70
2023-06-29T19:39:33.905Z,5.27
2023-06-29T19:42:05.180Z,5.53
2023-06-29T19:44:33.530Z,7.80
2023-06-29T19:47:01.940Z,4.37
2023-06-29T19:49:30.379Z,4.70
2023-06-29T19:51:59.196Z,6.67
2023-06-29T19:54:27.869Z,4.40
2023-06-29T19:56:56.298Z,8.50
2023-06-29T19:59:26.211Z,6.27
2023-06-29T20:01:56.485Z,4.73
2023-06-29T20:04:24.826Z,8.33
2023-06-29T20:06:53.374Z,6.37
2023-06-29T20:09:21.660Z,5.20
2023-06-29T20:11:49.880Z,5.53
2023-06-29T20:14:18.445Z,6.70
2023-06-29T20:16:48.040Z,7.13
2023-06-29T20:19:17.664Z,5.50
2023-06-29T20:21:46.309Z,3.63
2023-06-29T20:24:14.578Z,5.50
2023-06-29T20:26:45.983Z,5.80
2023-06-29T20:29:15.482Z,5.27
2023-06-29T20:31:43.922Z,4.70
2023-06-29T20:34:16.071Z,8.70
2023-06-29T20:36:44.248Z,4.87
2023-06-29T20:39:12.692Z,9.70
2023-06-29T20:41:40.986Z,9.03
2023-06-29T20:44:13.336Z,8.97
2023-06-29T20:46:42.605Z,11.27
2023-06-29T20:49:11.157Z,7.13
2023-06-29T20:51:40.742Z,11.73
2023-06-29T20:54:09.361Z,8.30
2023-06-29T20:56:37.747Z,7.60
2023-06-29T20:59:06.222Z,9.60
2023-06-29T21:01:34.714Z,7.60
2023-06-29T21:04:03.095Z,9.63
2023-06-29T21:06:31.609Z,9.33
2023-06-29T21:09:01.451Z,12.33
2023-06-29T21:13:59.557Z,8.37
2023-06-29T21:16:28.102Z,7.83
2023-06-29T21:18:57.080Z,7.37
2023-06-29T21:21:27.225Z,6.33
2023-06-29T21:23:56.611Z,10.77
2023-06-29T21:26:26.480Z,8.43
2023-06-29T21:28:59.215Z,11.53
2023-06-29T21:31:27.990Z,8.03
2023-06-29T21:33:57.323Z,8.27
2023-06-29T21:36:26.215Z,7.20
2023-06-29T21:38:55.143Z,5.87
2023-06-29T21:41:24.936Z,6.50
2023-06-29T21:43:53.401Z,9.97
2023-06-29T21:46:21.905Z,6.90
2023-06-29T21:48:50.530Z,9.10
2023-06-29T21:51:18.804Z,4.27
2023-06-29T21:53:47.524Z,5.03
2023-06-29T21:56:26.105Z,5.50
2023-06-29T21:58:57.036Z,7.30
2023-06-29T22:01:25.343Z,7.10
2023-06-29T22:03:54.033Z,7.10
2023-06-29T22:06:22.521Z,9.63
2023-06-29T22:08:50.883Z,7.63
2023-06-29T22:11:20.998Z,7.80
2023-06-29T22:13:50.343Z,7.43
2023-06-29T22:16:21.732Z,5.30
2023-06-29T22:18:52.078Z,8.43
2023-06-29T22:21:22.627Z,10.10
2023-06-29T22:23:52.468Z,12.03
2023-06-29T22:26:21.610Z,9.10
2023-06-29T22:28:50.776Z,5.17
2023-06-29T22:31:20.644Z,6.70
2023-06-29T22:33:49.885Z,10.30
2023-06-29T22:36:19.344Z,6.20
2023-06-29T22:38:48.023Z,8.10
2023-06-29T22:41:16.658Z,7.43
2023-06-29T22:43:44.944Z,9.33
2023-06-29T22:46:13.242Z,9.20
2023-06-29T22:48:45.140Z,7.70
2023-06-29T22:51:15.033Z,9.10
2023-06-29T22:53:43.257Z,9.00
2023-06-29T22:56:11.454Z,8.13
2023-06-29T22:58:40.921Z,10.50
2023-06-29T23:01:09.097Z,9.07
2023-06-29T23:03:37.605Z,8.40
2023-06-29T23:06:08.314Z,8.27
2023-06-29T23:08:37.064Z,8.60
2023-06-29T23:11:06.062Z,10.83
2023-06-29T23:13:41.519Z,7.30
2023-06-29T23:16:09.823Z,9.33
2023-06-29T23:18:40.072Z,13.20
2023-06-29T23:21:09.780Z,13.20
2023-06-29T23:23:38.068Z,9.20
2023-06-29T23:26:08.077Z,9.67
2023-06-29T23:28:37.208Z,8.10
2023-06-29T23:31:05.587Z,14.80
2023-06-29T23:33:33.822Z,12.63
2023-06-29T23:36:02.065Z,8.00
2023-06-29T23:38:31.714Z,6.80
2023-06-29T23:41:00.573Z,13.07
2023-06-29T23:43:29.025Z,10.93
2023-06-29T23:45:57.363Z,7.63
2023-06-29T23:48:25.621Z,5.87
2023-06-29T23:50:53.864Z,6.50
2023-06-29T23:53:22.191Z,10.77
2023-06-29T23:55:51.785Z,10.43
2023-06-29T23:58:19.953Z,8.77
